sensor_id;sensor_type;location;lat;lon;timestamp;pressure;altitude;pressure_sealevel;temperature;humidity
58919;BME280;44704;50.122;19.932;2023-02-03T00:02:03;98868.83;;;-0.74;90.15
58919;BME280;44704;50.122;19.932;2023-02-03T00:04:30;98868.04;;;-0.75;90.10
58919;BME280;44704;50.122;19.932;2023-02-03T00:06:57;98867.79;;;-0.77;89.74
58919;BME280;44704;50.122;19.932;2023-02-03T00:09:24;98864.35;;;-0.78;89.72
58919;BME280;44704;50.122;19.932;2023-02-03T00:11:52;98867.84;;;-0.77;89.64
58919;BME280;44704;50.122;19.932;2023-02-03T00:14:19;98867.05;;;-0.78;89.48
58919;BME280;44704;50.122;19.932;2023-02-03T00:16:46;98867.27;;;-0.80;89.24
58919;BME280;44704;50.122;19.932;2023-02-03T00:19:13;98868.89;;;-0.82;89.38
58919;BME280;44704;50.122;19.932;2023-02-03T00:21:40;98869.02;;;-0.83;89.33
58919;BME280;44704;50.122;19.932;2023-02-03T00:24:08;98882.29;;;-0.84;89.61
58919;BME280;44704;50.122;19.932;2023-02-03T00:26:40;98889.90;;;-0.85;89.45
58919;BME280;44704;50.122;19.932;2023-02-03T00:29:08;98895.89;;;-0.82;89.45
58919;BME280;44704;50.122;19.932;2023-02-03T00:31:36;98895.83;;;-0.80;89.45
58919;BME280;44704;50.122;19.932;2023-02-03T00:34:03;98896.34;;;-0.78;89.11
58919;BME280;44704;50.122;19.932;2023-02-03T00:36:31;98896.85;;;-0.74;88.94
58919;BME280;44704;50.122;19.932;2023-02-03T00:38:59;98903.40;;;-0.72;88.26
58919;BME280;44704;50.122;19.932;2023-02-03T00:41:29;98905.63;;;-0.70;87.31
58919;BME280;44704;50.122;19.932;2023-02-03T00:43:59;98907.04;;;-0.68;87.32
58919;BME280;44704;50.122;19.932;2023-02-03T00:46:26;98913.96;;;-0.66;85.07
58919;BME280;44704;50.122;19.932;2023-02-03T00:48:53;98910.83;;;-0.64;85.13
58919;BME280;44704;50.122;19.932;2023-02-03T00:51:21;98913.68;;;-0.62;85.48
58919;BME280;44704;50.122;19.932;2023-02-03T00:53:49;98912.38;;;-0.61;84.13
58919;BME280;44704;50.122;19.932;2023-02-03T00:56:15;98912.77;;;-0.60;83.29
58919;BME280;44704;50.122;19.932;2023-02-03T00:58:44;98916.99;;;-0.59;83.17
58919;BME280;44704;50.122;19.932;2023-02-03T01:01:11;98917.23;;;-0.60;82.93
58919;BME280;44704;50.122;19.932;2023-02-03T01:03:38;98922.31;;;-0.61;82.00
58919;BME280;44704;50.122;19.932;2023-02-03T01:06:14;98921.46;;;-0.61;82.06
58919;BME280;44704;50.122;19.932;2023-02-03T01:08:42;98924.23;;;-0.62;81.92
58919;BME280;44704;50.122;19.932;2023-02-03T01:11:13;98929.13;;;-0.61;81.89
58919;BME280;44704;50.122;19.932;2023-02-03T01:13:41;98926.81;;;-0.61;81.59
58919;BME280;44704;50.122;19.932;2023-02-03T01:16:09;98926.95;;;-0.61;81.73
58919;BME280;44704;50.122;19.932;2023-02-03T01:18:38;98927.69;;;-0.61;82.18
58919;BME280;44704;50.122;19.932;2023-02-03T01:21:15;98924.65;;;-0.61;82.29
58919;BME280;44704;50.122;19.932;2023-02-03T01:23:42;98929.40;;;-0.60;82.65
58919;BME280;44704;50.122;19.932;2023-02-03T01:26:13;98926.35;;;-0.60;82.61
58919;BME280;44704;50.122;19.932;2023-02-03T01:28:41;98922.91;;;-0.60;83.01
58919;BME280;44704;50.122;19.932;2023-02-03T01:31:13;98920.94;;;-0.60;83.48
58919;BME280;44704;50.122;19.932;2023-02-03T01:33:41;98918.92;;;-0.59;83.93
58919;BME280;44704;50.122;19.932;2023-02-03T01:36:15;98923.05;;;-0.58;84.23
58919;BME280;44704;50.122;19.932;2023-02-03T01:38:44;98927.90;;;-0.54;85.03
58919;BME280;44704;50.122;19.932;2023-02-03T01:41:20;98924.40;;;-0.53;85.54
58919;BME280;44704;50.122;19.932;2023-02-03T01:43:50;98917.05;;;-0.53;86.60
58919;BME280;44704;50.122;19.932;2023-02-03T01:48:44;98916.54;;;-0.53;87.15
58919;BME280;44704;50.122;19.932;2023-02-03T01:51:11;98916.77;;;-0.54;87.12
58919;BME280;44704;50.122;19.932;2023-02-03T01:53:40;98913.80;;;-0.54;86.73
58919;BME280;44704;50.122;19.932;2023-02-03T01:56:08;98917.64;;;-0.55;86.88
58919;BME280;44704;50.122;19.932;2023-02-03T01:58:38;98916.06;;;-0.57;86.68
58919;BME280;44704;50.122;19.932;2023-02-03T02:01:07;98915.28;;;-0.59;86.72
58919;BME280;44704;50.122;19.932;2023-02-03T02:03:47;98916.86;;;-0.60;86.54
58919;BME280;44704;50.122;19.932;2023-02-03T02:06:15;98913.81;;;-0.61;86.63
58919;BME280;44704;50.122;19.932;2023-02-03T02:08:47;98910.42;;;-0.63;85.94
58919;BME280;44704;50.122;19.932;2023-02-03T02:11:19;98909.30;;;-0.64;85.86
58919;BME280;44704;50.122;19.932;2023-02-03T02:13:48;98902.34;;;-0.66;85.67
58919;BME280;44704;50.122;19.932;2023-02-03T02:16:24;98899.41;;;-0.67;85.80
58919;BME280;44704;50.122;19.932;2023-02-03T02:25:02;98891.82;;;-0.69;85.68
58919;BME280;44704;50.122;19.932;2023-02-03T02:28:24;98887.95;;;-0.69;85.56
58919;BME280;44704;50.122;19.932;2023-02-03T02:34:12;98891.40;;;-0.74;85.92
58919;BME280;44704;50.122;19.932;2023-02-03T02:36:59;98891.63;;;-0.76;85.76
58919;BME280;44704;50.122;19.932;2023-02-03T02:42:25;98893.27;;;-0.83;86.19
58919;BME280;44704;50.122;19.932;2023-02-03T02:45:05;98896.48;;;-0.88;86.02
58919;BME280;44704;50.122;19.932;2023-02-03T02:47:34;98901.73;;;-0.92;86.52
58919;BME280;44704;50.122;19.932;2023-02-03T02:50:08;98904.25;;;-0.96;86.83
58919;BME280;44704;50.122;19.932;2023-02-03T02:52:40;98906.73;;;-0.99;87.03
58919;BME280;44704;50.122;19.932;2023-02-03T02:55:16;98908.35;;;-1.01;87.19
58919;BME280;44704;50.122;19.932;2023-02-03T02:57:53;98906.55;;;-1.03;87.67
58919;BME280;44704;50.122;19.932;2023-02-03T03:00:23;98901.64;;;-1.05;87.55
58919;BME280;44704;50.122;19.932;2023-02-03T03:02:50;98899.14;;;-1.08;87.92
58919;BME280;44704;50.122;19.932;2023-02-03T03:05:17;98896.59;;;-1.11;87.79
58919;BME280;44704;50.122;19.932;2023-02-03T03:07:51;98895.30;;;-1.15;88.10
58919;BME280;44704;50.122;19.932;2023-02-03T03:10:22;98883.23;;;-1.17;87.99
58919;BME280;44704;50.122;19.932;2023-02-03T03:12:56;98877.08;;;-1.19;88.21
58919;BME280;44704;50.122;19.932;2023-02-03T03:15:29;98866.02;;;-1.21;88.23
58919;BME280;44704;50.122;19.932;2023-02-03T03:20:38;98847.61;;;-1.27;88.06
58919;BME280;44704;50.122;19.932;2023-02-03T03:23:27;98846.19;;;-1.30;88.20
58919;BME280;44704;50.122;19.932;2023-02-03T03:28:44;98851.67;;;-1.37;88.19
58919;BME280;44704;50.122;19.932;2023-02-03T03:31:14;98859.06;;;-1.41;88.48
58919;BME280;44704;50.122;19.932;2023-02-03T03:33:41;98867.38;;;-1.46;88.32
58919;BME280;44704;50.122;19.932;2023-02-03T03:36:26;98875.70;;;-1.49;88.27
58919;BME280;44704;50.122;19.932;2023-02-03T03:39:32;98881.36;;;-1.52;88.53
58919;BME280;44704;50.122;19.932;2023-02-03T03:42:08;98882.14;;;-1.56;88.68
58919;BME280;44704;50.122;19.932;2023-02-03T03:44:41;98883.64;;;-1.61;88.97
58919;BME280;44704;50.122;19.932;2023-02-03T03:47:16;98886.80;;;-1.64;88.45
58919;BME280;44704;50.122;19.932;2023-02-03T03:49:47;98887.67;;;-1.67;88.79
58919;BME280;44704;50.122;19.932;2023-02-03T03:52:20;98891.78;;;-1.71;88.62
58919;BME280;44704;50.122;19.932;2023-02-03T03:54:50;98889.05;;;-1.75;88.70
58919;BME280;44704;50.122;19.932;2023-02-03T03:57:24;98880.43;;;-1.80;88.74
58919;BME280;44704;50.122;19.932;2023-02-03T03:59:52;98871.48;;;-1.83;88.91
58919;BME280;44704;50.122;19.932;2023-02-03T04:02:21;98862.22;;;-1.84;88.75
58919;BME280;44704;50.122;19.932;2023-02-03T04:04:49;98845.95;;;-1.87;88.92
58919;BME280;44704;50.122;19.932;2023-02-03T04:07:17;98844.44;;;-1.88;89.00
58919;BME280;44704;50.122;19.932;2023-02-03T04:09:46;98841.45;;;-1.91;89.02
58919;BME280;44704;50.122;19.932;2023-02-03T04:12:22;98840.55;;;-1.91;89.62
58919;BME280;44704;50.122;19.932;2023-02-03T04:14:49;98841.57;;;-1.92;89.31
58919;BME280;44704;50.122;19.932;2023-02-03T04:17:16;98843.45;;;-1.93;89.51
58919;BME280;44704;50.122;19.932;2023-02-03T04:19:47;98842.38;;;-1.93;89.47
58919;BME280;44704;50.122;19.932;2023-02-03T04:22:14;98842.94;;;-1.93;89.62
58919;BME280;44704;50.122;19.932;2023-02-03T04:24:41;98837.20;;;-1.94;89.57
58919;BME280;44704;50.122;19.932;2023-02-03T04:27:08;98841.50;;;-1.94;89.69
58919;BME280;44704;50.122;19.932;2023-02-03T04:29:35;98838.55;;;-1.95;89.75
58919;BME280;44704;50.122;19.932;2023-02-03T04:32:02;98831.64;;;-1.95;89.47
58919;BME280;44704;50.122;19.932;2023-02-03T04:34:29;98835.17;;;-1.95;89.38
58919;BME280;44704;50.122;19.932;2023-02-03T04:36:56;98834.71;;;-1.96;89.28
58919;BME280;44704;50.122;19.932;2023-02-03T04:39:23;98833.41;;;-1.97;89.44
58919;BME280;44704;50.122;19.932;2023-02-03T04:41:50;98831.96;;;-1.98;89.39
58919;BME280;44704;50.122;19.932;2023-02-03T04:44:17;98836.19;;;-2.00;89.32
58919;BME280;44704;50.122;19.932;2023-02-03T04:46:44;98832.55;;;-2.01;89.28
58919;BME280;44704;50.122;19.932;2023-02-03T04:49:11;98831.44;;;-2.01;89.09
58919;BME280;44704;50.122;19.932;2023-02-03T04:51:38;98820.86;;;-2.01;89.50
58919;BME280;44704;50.122;19.932;2023-02-03T04:54:05;98823.50;;;-2.01;89.29
58919;BME280;44704;50.122;19.932;2023-02-03T04:56:32;98823.98;;;-2.01;89.26
58919;BME280;44704;50.122;19.932;2023-02-03T04:58:59;98820.43;;;-2.01;89.30
58919;BME280;44704;50.122;19.932;2023-02-03T05:01:26;98817.55;;;-1.99;89.39
58919;BME280;44704;50.122;19.932;2023-02-03T05:03:53;98819.98;;;-1.98;89.26
58919;BME280;44704;50.122;19.932;2023-02-03T05:06:24;98818.79;;;-1.97;89.44
58919;BME280;44704;50.122;19.932;2023-02-03T05:08:52;98814.73;;;-1.96;89.49
58919;BME280;44704;50.122;19.932;2023-02-03T05:11:22;98816.91;;;-1.94;89.46
58919;BME280;44704;50.122;19.932;2023-02-03T05:13:49;98815.52;;;-1.94;89.38
58919;BME280;44704;50.122;19.932;2023-02-03T05:16:16;98814.20;;;-1.94;89.21
58919;BME280;44704;50.122;19.932;2023-02-03T05:18:43;98812.67;;;-1.93;89.49
58919;BME280;44704;50.122;19.932;2023-02-03T05:21:11;98805.73;;;-1.93;89.21
58919;BME280;44704;50.122;19.932;2023-02-03T05:23:38;98809.98;;;-1.93;89.14
58919;BME280;44704;50.122;19.932;2023-02-03T05:26:05;98804.58;;;-1.92;89.26
58919;BME280;44704;50.122;19.932;2023-02-03T05:28:32;98801.27;;;-1.93;89.04
58919;BME280;44704;50.122;19.932;2023-02-03T05:31:00;98800.40;;;-1.93;89.00
58919;BME280;44704;50.122;19.932;2023-02-03T05:33:28;98791.48;;;-1.94;88.65
58919;BME280;44704;50.122;19.932;2023-02-03T05:35:55;98781.61;;;-1.95;88.84
58919;BME280;44704;50.122;19.932;2023-02-03T05:38:23;98780.47;;;-1.96;88.85
58919;BME280;44704;50.122;19.932;2023-02-03T05:40:51;98774.33;;;-1.97;88.48
58919;BME280;44704;50.122;19.932;2023-02-03T05:43:36;98774.13;;;-1.97;88.53
58919;BME280;44704;50.122;19.932;2023-02-03T05:46:05;98776.86;;;-1.97;88.47
58919;BME280;44704;50.122;19.932;2023-02-03T05:48:33;98780.87;;;-1.97;88.41
58919;BME280;44704;50.122;19.932;2023-02-03T05:51:00;98779.36;;;-1.96;88.49
58919;BME280;44704;50.122;19.932;2023-02-03T05:53:27;98780.09;;;-1.96;88.31
58919;BME280;44704;50.122;19.932;2023-02-03T05:55:55;98778.16;;;-1.96;88.40
58919;BME280;44704;50.122;19.932;2023-02-03T05:58:22;98774.04;;;-1.96;88.79
58919;BME280;44704;50.122;19.932;2023-02-03T06:00:48;98772.34;;;-1.95;88.77
58919;BME280;44704;50.122;19.932;2023-02-03T06:03:16;98767.54;;;-1.95;88.79
58919;BME280;44704;50.122;19.932;2023-02-03T06:05:43;98770.95;;;-1.95;88.81
58919;BME280;44704;50.122;19.932;2023-02-03T06:08:12;98772.43;;;-1.96;88.86
58919;BME280;44704;50.122;19.932;2023-02-03T06:10:43;98766.92;;;-1.96;88.93
58919;BME280;44704;50.122;19.932;2023-02-03T06:13:11;98761.92;;;-1.96;88.93
58919;BME280;44704;50.122;19.932;2023-02-03T06:15:39;98756.11;;;-1.96;89.18
58919;BME280;44704;50.122;19.932;2023-02-03T06:18:07;98743.20;;;-1.97;89.20
58919;BME280;44704;50.122;19.932;2023-02-03T06:20:34;98732.92;;;-1.97;89.35
58919;BME280;44704;50.122;19.932;2023-02-03T06:23:01;98723.81;;;-1.97;89.24
58919;BME280;44704;50.122;19.932;2023-02-03T06:25:28;98720.85;;;-1.97;89.28
58919;BME280;44704;50.122;19.932;2023-02-03T06:28:07;98718.67;;;-1.98;89.48
58919;BME280;44704;50.122;19.932;2023-02-03T06:30:40;98717.79;;;-1.97;89.54
58919;BME280;44704;50.122;19.932;2023-02-03T06:33:07;98717.45;;;-1.96;89.69
58919;BME280;44704;50.122;19.932;2023-02-03T06:35:34;98709.21;;;-1.95;89.90
58919;BME280;44704;50.122;19.932;2023-02-03T06:38:02;98703.79;;;-1.94;89.71
58919;BME280;44704;50.122;19.932;2023-02-03T06:40:29;98711.34;;;-1.92;89.72
58919;BME280;44704;50.122;19.932;2023-02-03T06:42:56;98711.73;;;-1.91;89.72
58919;BME280;44704;50.122;19.932;2023-02-03T06:45:23;98718.13;;;-1.88;89.82
58919;BME280;44704;50.122;19.932;2023-02-03T06:47:50;98713.66;;;-1.86;90.00
58919;BME280;44704;50.122;19.932;2023-02-03T06:50:18;98709.73;;;-1.84;89.85
58919;BME280;44704;50.122;19.932;2023-02-03T06:52:45;98705.31;;;-1.83;89.50
58919;BME280;44704;50.122;19.932;2023-02-03T06:55:12;98702.61;;;-1.81;89.65
58919;BME280;44704;50.122;19.932;2023-02-03T06:57:44;98703.48;;;-1.78;89.69
58919;BME280;44704;50.122;19.932;2023-02-03T07:00:13;98695.19;;;-1.70;90.28
58919;BME280;44704;50.122;19.932;2023-02-03T07:02:40;98696.61;;;-1.65;90.10
58919;BME280;44704;50.122;19.932;2023-02-03T07:05:07;98694.84;;;-1.56;90.69
58919;BME280;44704;50.122;19.932;2023-02-03T07:07:35;98690.39;;;-1.46;90.22
58919;BME280;44704;50.122;19.932;2023-02-03T07:10:06;98685.80;;;-1.41;89.56
58919;BME280;44704;50.122;19.932;2023-02-03T07:12:33;98683.98;;;-1.39;88.91
58919;BME280;44704;50.122;19.932;2023-02-03T07:15:03;98677.46;;;-1.37;89.24
58919;BME280;44704;50.122;19.932;2023-02-03T07:17:30;98672.91;;;-1.32;89.32
58919;BME280;44704;50.122;19.932;2023-02-03T07:19:58;98669.54;;;-1.29;88.99
58919;BME280;44704;50.122;19.932;2023-02-03T07:22:25;98671.25;;;-1.25;88.39
58919;BME280;44704;50.122;19.932;2023-02-03T07:24:52;98672.42;;;-1.20;88.92
58919;BME280;44704;50.122;19.932;2023-02-03T07:27:19;98668.06;;;-1.12;88.86
58919;BME280;44704;50.122;19.932;2023-02-03T07:29:46;98664.33;;;-1.05;88.77
58919;BME280;44704;50.122;19.932;2023-02-03T07:32:13;98658.76;;;-0.98;88.45
58919;BME280;44704;50.122;19.932;2023-02-03T07:34:40;98657.48;;;-0.91;88.33
58919;BME280;44704;50.122;19.932;2023-02-03T07:37:07;98658.06;;;-0.85;87.73
58919;BME280;44704;50.122;19.932;2023-02-03T07:39:34;98656.69;;;-0.81;87.46
58919;BME280;44704;50.122;19.932;2023-02-03T07:42:01;98649.77;;;-0.76;87.37
58919;BME280;44704;50.122;19.932;2023-02-03T07:44:29;98642.11;;;-0.71;87.17
58919;BME280;44704;50.122;19.932;2023-02-03T07:46:56;98636.64;;;-0.69;86.93
58919;BME280;44704;50.122;19.932;2023-02-03T07:49:23;98629.70;;;-0.66;86.45
58919;BME280;44704;50.122;19.932;2023-02-03T07:51:50;98621.38;;;-0.63;86.34
58919;BME280;44704;50.122;19.932;2023-02-03T07:54:17;98619.00;;;-0.59;86.40
58919;BME280;44704;50.122;19.932;2023-02-03T07:56:44;98614.75;;;-0.54;86.23
58919;BME280;44704;50.122;19.932;2023-02-03T07:59:11;98613.02;;;-0.50;86.09
58919;BME280;44704;50.122;19.932;2023-02-03T08:01:38;98606.70;;;-0.43;86.06
58919;BME280;44704;50.122;19.932;2023-02-03T08:04:04;98600.29;;;-0.36;85.97
58919;BME280;44704;50.122;19.932;2023-02-03T08:06:32;98590.34;;;-0.30;85.81
58919;BME280;44704;50.122;19.932;2023-02-03T08:08:58;98586.95;;;-0.26;85.33
58919;BME280;44704;50.122;19.932;2023-02-03T08:11:25;98582.23;;;-0.24;84.80
58919;BME280;44704;50.122;19.932;2023-02-03T08:13:52;98574.84;;;-0.23;83.99
58919;BME280;44704;50.122;19.932;2023-02-03T08:16:21;98570.47;;;-0.19;84.23
58919;BME280;44704;50.122;19.932;2023-02-03T08:18:48;98569.22;;;-0.15;84.17
58919;BME280;44704;50.122;19.932;2023-02-03T08:21:15;98566.15;;;-0.11;83.92
58919;BME280;44704;50.122;19.932;2023-02-03T08:23:42;98563.35;;;-0.07;83.86
58919;BME280;44704;50.122;19.932;2023-02-03T08:26:09;98559.66;;;-0.02;83.77
58919;BME280;44704;50.122;19.932;2023-02-03T08:28:36;98555.72;;;0.03;83.40
58919;BME280;44704;50.122;19.932;2023-02-03T08:31:12;98555.80;;;0.07;82.99
58919;BME280;44704;50.122;19.932;2023-02-03T08:33:39;98549.00;;;0.20;84.16
58919;BME280;44704;50.122;19.932;2023-02-03T08:36:06;98550.20;;;0.43;83.60
58919;BME280;44704;50.122;19.932;2023-02-03T08:38:33;98547.36;;;0.52;81.95
58919;BME280;44704;50.122;19.932;2023-02-03T08:41:00;98544.69;;;0.55;81.18
58919;BME280;44704;50.122;19.932;2023-02-03T08:43:27;98531.62;;;0.56;80.31
58919;BME280;44704;50.122;19.932;2023-02-03T08:45:54;98520.64;;;0.55;79.69
58919;BME280;44704;50.122;19.932;2023-02-03T08:48:27;98510.16;;;0.54;79.45
58919;BME280;44704;50.122;19.932;2023-02-03T08:50:54;98508.98;;;0.55;79.64
58919;BME280;44704;50.122;19.932;2023-02-03T08:53:21;98514.20;;;0.60;79.69
58919;BME280;44704;50.122;19.932;2023-02-03T08:55:48;98512.20;;;0.65;79.63
58919;BME280;44704;50.122;19.932;2023-02-03T08:58:15;98509.52;;;0.70;79.08
58919;BME280;44704;50.122;19.932;2023-02-03T09:00:42;98504.79;;;0.76;78.59
58919;BME280;44704;50.122;19.932;2023-02-03T09:03:10;98498.73;;;0.83;78.62
58919;BME280;44704;50.122;19.932;2023-02-03T09:05:37;98494.18;;;0.93;78.39
58919;BME280;44704;50.122;19.932;2023-02-03T09:08:04;98493.80;;;0.98;77.73
58919;BME280;44704;50.122;19.932;2023-02-03T09:10:31;98494.63;;;1.03;77.38
58919;BME280;44704;50.122;19.932;2023-02-03T09:12:58;98484.44;;;1.09;76.92
58919;BME280;44704;50.122;19.932;2023-02-03T09:15:26;98483.54;;;1.15;76.92
58919;BME280;44704;50.122;19.932;2023-02-03T09:17:53;98485.09;;;1.20;76.13
58919;BME280;44704;50.122;19.932;2023-02-03T09:20:23;98480.47;;;1.25;75.94
58919;BME280;44704;50.122;19.932;2023-02-03T09:22:51;98480.67;;;1.31;75.30
58919;BME280;44704;50.122;19.932;2023-02-03T09:25:20;98477.31;;;1.36;75.35
58919;BME280;44704;50.122;19.932;2023-02-03T09:27:48;98478.48;;;1.39;75.09
58919;BME280;44704;50.122;19.932;2023-02-03T09:30:15;98478.05;;;1.44;75.30
58919;BME280;44704;50.122;19.932;2023-02-03T09:32:42;98477.67;;;1.47;74.70
58919;BME280;44704;50.122;19.932;2023-02-03T09:35:10;98476.84;;;1.44;74.07
58919;BME280;44704;50.122;19.932;2023-02-03T09:37:37;98473.03;;;1.43;74.23
58919;BME280;44704;50.122;19.932;2023-02-03T09:40:05;98467.25;;;1.42;74.09
58919;BME280;44704;50.122;19.932;2023-02-03T09:45:25;98457.92;;;1.33;73.57
58919;BME280;44704;50.122;19.932;2023-02-03T09:47:57;98451.04;;;1.28;73.69
58919;BME280;44704;50.122;19.932;2023-02-03T09:50:32;98447.05;;;1.25;73.86
58919;BME280;44704;50.122;19.932;2023-02-03T09:53:07;98439.40;;;1.25;73.99
58919;BME280;44704;50.122;19.932;2023-02-03T09:55:40;98432.11;;;1.26;73.66
58919;BME280;44704;50.122;19.932;2023-02-03T09:58:11;98431.51;;;1.30;73.94
58919;BME280;44704;50.122;19.932;2023-02-03T10:20:07;98377.34;;;1.36;75.19
58919;BME280;44704;50.122;19.932;2023-02-03T10:22:45;98366.11;;;1.35;75.53
58919;BME280;44704;50.122;19.932;2023-02-03T10:27:42;98339.06;;;1.34;76.18
58919;BME280;44704;50.122;19.932;2023-02-03T10:30:20;98333.27;;;1.33;76.24
58919;BME280;44704;50.122;19.932;2023-02-03T10:32:53;98323.55;;;1.31;76.15
58919;BME280;44704;50.122;19.932;2023-02-03T10:35:32;98314.41;;;1.26;76.01
58919;BME280;44704;50.122;19.932;2023-02-03T10:38:04;98307.38;;;1.21;76.40
58919;BME280;44704;50.122;19.932;2023-02-03T10:40:39;98299.08;;;1.17;76.93
58919;BME280;44704;50.122;19.932;2023-02-03T10:43:08;98290.29;;;1.13;77.22
58919;BME280;44704;50.122;19.932;2023-02-03T10:45:54;98277.19;;;1.08;77.74
58919;BME280;44704;50.122;19.932;2023-02-03T10:48:22;98265.52;;;1.01;78.13
58919;BME280;44704;50.122;19.932;2023-02-03T10:50:51;98256.79;;;0.95;78.71
58919;BME280;44704;50.122;19.932;2023-02-03T10:53:25;98246.37;;;0.89;79.10
58919;BME280;44704;50.122;19.932;2023-02-03T10:56:09;98237.60;;;0.87;79.46
58919;BME280;44704;50.122;19.932;2023-02-03T10:58:38;98227.16;;;0.86;80.15
58919;BME280;44704;50.122;19.932;2023-02-03T11:01:08;98224.56;;;0.83;80.50
58919;BME280;44704;50.122;19.932;2023-02-03T11:03:35;98214.18;;;0.81;80.71
58919;BME280;44704;50.122;19.932;2023-02-03T11:06:12;98204.36;;;0.81;81.13
58919;BME280;44704;50.122;19.932;2023-02-03T11:08:44;98196.67;;;0.78;81.18
58919;BME280;44704;50.122;19.932;2023-02-03T11:11:29;98183.73;;;0.76;81.44
58919;BME280;44704;50.122;19.932;2023-02-03T11:16:32;98161.72;;;0.69;81.72
58919;BME280;44704;50.122;19.932;2023-02-03T11:19:32;98154.12;;;0.64;82.46
58919;BME280;44704;50.122;19.932;2023-02-03T11:21:59;98152.35;;;0.56;82.72
58919;BME280;44704;50.122;19.932;2023-02-03T11:24:32;98144.45;;;0.50;83.24
58919;BME280;44704;50.122;19.932;2023-02-03T11:27:14;98130.27;;;0.47;83.67
58919;BME280;44704;50.122;19.932;2023-02-03T11:29:45;98117.58;;;0.43;84.11
58919;BME280;44704;50.122;19.932;2023-02-03T11:32:39;98112.62;;;0.38;84.52
58919;BME280;44704;50.122;19.932;2023-02-03T11:35:17;98101.23;;;0.36;85.12
58919;BME280;44704;50.122;19.932;2023-02-03T11:37:53;98093.75;;;0.38;85.53
58919;BME280;44704;50.122;19.932;2023-02-03T11:45:24;98065.17;;;0.33;86.43
58919;BME280;44704;50.122;19.932;2023-02-03T11:48:21;98057.64;;;0.30;86.86
58919;BME280;44704;50.122;19.932;2023-02-03T11:54:13;98035.83;;;0.28;87.43
58919;BME280;44704;50.122;19.932;2023-02-03T11:57:12;98028.67;;;0.22;87.61
58919;BME280;44704;50.122;19.932;2023-02-03T12:05:41;97994.40;;;0.22;88.58
58919;BME280;44704;50.122;19.932;2023-02-03T12:08:39;97980.67;;;0.29;88.57
58919;BME280;44704;50.122;19.932;2023-02-03T12:14:37;97954.65;;;0.36;88.35
58919;BME280;44704;50.122;19.932;2023-02-03T12:17:40;97950.29;;;0.41;88.58
58919;BME280;44704;50.122;19.932;2023-02-03T12:30:55;97898.73;;;0.47;88.30
58919;BME280;44704;50.122;19.932;2023-02-03T12:33:39;97889.63;;;0.45;88.43
58919;BME280;44704;50.122;19.932;2023-02-03T12:36:25;97891.61;;;0.42;88.50
58919;BME280;44704;50.122;19.932;2023-02-03T12:38:59;97889.55;;;0.40;88.58
58919;BME280;44704;50.122;19.932;2023-02-03T12:41:34;97876.55;;;0.36;88.78
58919;BME280;44704;50.122;19.932;2023-02-03T12:44:38;97870.06;;;0.37;89.07
58919;BME280;44704;50.122;19.932;2023-02-03T12:47:21;97852.45;;;0.39;89.27
58919;BME280;44704;50.122;19.932;2023-02-03T12:50:05;97844.22;;;0.39;89.14
58919;BME280;44704;50.122;19.932;2023-02-03T12:59:21;97815.36;;;0.32;89.71
58919;BME280;44704;50.122;19.932;2023-02-03T13:01:55;97804.40;;;0.32;89.58
58919;BME280;44704;50.122;19.932;2023-02-03T13:04:48;97800.89;;;0.35;90.13
58919;BME280;44704;50.122;19.932;2023-02-03T13:10:45;97778.55;;;0.36;89.94
58919;BME280;44704;50.122;19.932;2023-02-03T13:13:04;97768.91;;;0.36;90.03
58919;BME280;44704;50.122;19.932;2023-02-03T13:15:44;97759.02;;;0.35;90.15
58919;BME280;44704;50.122;19.932;2023-02-03T13:18:33;97756.51;;;0.34;90.22
58919;BME280;44704;50.122;19.932;2023-02-03T13:21:02;97749.05;;;0.36;90.52
58919;BME280;44704;50.122;19.932;2023-02-03T13:23:29;97735.80;;;0.38;90.71
58919;BME280;44704;50.122;19.932;2023-02-03T13:32:17;97717.35;;;0.40;90.53
58919;BME280;44704;50.122;19.932;2023-02-03T13:40:19;97688.29;;;0.37;91.29
58919;BME280;44704;50.122;19.932;2023-02-03T13:43:01;97676.30;;;0.37;91.42
58919;BME280;44704;50.122;19.932;2023-02-03T13:45:37;97670.40;;;0.37;91.51
58919;BME280;44704;50.122;19.932;2023-02-03T13:48:16;97666.86;;;0.37;91.63
58919;BME280;44704;50.122;19.932;2023-02-03T13:50:45;97657.63;;;0.38;91.88
58919;BME280;44704;50.122;19.932;2023-02-03T13:53:19;97648.16;;;0.40;92.39
58919;BME280;44704;50.122;19.932;2023-02-03T13:55:57;97639.76;;;0.41;92.32
58919;BME280;44704;50.122;19.932;2023-02-03T13:58:33;97635.73;;;0.43;92.71
58919;BME280;44704;50.122;19.932;2023-02-03T14:01:28;97631.98;;;0.44;92.63
58919;BME280;44704;50.122;19.932;2023-02-03T14:03:57;97623.05;;;0.43;92.76
58919;BME280;44704;50.122;19.932;2023-02-03T14:09:20;97608.20;;;0.41;93.06
58919;BME280;44704;50.122;19.932;2023-02-03T14:11:51;97598.26;;;0.38;93.28
58919;BME280;44704;50.122;19.932;2023-02-03T14:16:51;97579.55;;;0.36;93.83
58919;BME280;44704;50.122;19.932;2023-02-03T14:21:59;97566.40;;;0.31;93.53
58919;BME280;44704;50.122;19.932;2023-02-03T14:24:40;97558.16;;;0.30;93.83
58919;BME280;44704;50.122;19.932;2023-02-03T14:27:21;97552.30;;;0.29;94.32
58919;BME280;44704;50.122;19.932;2023-02-03T14:30:09;97545.90;;;0.25;94.34
58919;BME280;44704;50.122;19.932;2023-02-03T14:35:32;97530.13;;;0.22;94.69
58919;BME280;44704;50.122;19.932;2023-02-03T14:38:03;97528.09;;;0.21;94.73
58919;BME280;44704;50.122;19.932;2023-02-03T14:40:52;97525.05;;;0.18;94.80
58919;BME280;44704;50.122;19.932;2023-02-03T14:46:19;97506.17;;;0.14;94.98
58919;BME280;44704;50.122;19.932;2023-02-03T14:49:11;97493.92;;;0.11;95.30
58919;BME280;44704;50.122;19.932;2023-02-03T15:05:42;97476.95;;;-0.06;96.42
58919;BME280;44704;50.122;19.932;2023-02-03T15:08:33;97469.34;;;-0.07;96.54
58919;BME280;44704;50.122;19.932;2023-02-03T15:11:28;97471.23;;;-0.09;96.99
58919;BME280;44704;50.122;19.932;2023-02-03T15:14:22;97472.25;;;-0.11;97.00
58919;BME280;44704;50.122;19.932;2023-02-03T15:17:10;97466.52;;;-0.14;97.31
58919;BME280;44704;50.122;19.932;2023-02-03T15:19:40;97468.70;;;-0.17;97.51
58919;BME280;44704;50.122;19.932;2023-02-03T15:25:18;97462.14;;;-0.22;98.04